createdAt,value
2022-10-20T00:01:56.030Z,3.80
2022-10-20T00:04:24.210Z,2.50
2022-10-20T00:06:53.916Z,3.88
2022-10-20T00:09:22.286Z,3.70
2022-10-20T00:11:50.978Z,3.40
2022-10-20T00:14:19.929Z,3.75
2022-10-20T00:16:48.088Z,2.90
2022-10-20T00:19:18.872Z,4.18
2022-10-20T00:21:47.090Z,3.08
2022-10-20T00:24:16.619Z,4.00
2022-10-20T00:26:51.011Z,3.97
2022-10-20T00:29:23.810Z,3.00
2022-10-20T00:31:56.081Z,3.22
2022-10-20T00:34:32.727Z,4.07
2022-10-20T00:37:07.321Z,3.92
2022-10-20T00:40:09.604Z,3.67
2022-10-20T00:42:41.002Z,4.05
2022-10-20T00:45:14.576Z,3.88
2022-10-20T00:48:57.925Z,3.92
2022-10-20T00:51:28.857Z,3.90
2022-10-20T00:54:13.502Z,4.10
2022-10-20T00:56:47.115Z,3.83
2022-10-20T00:59:29.402Z,4.40
2022-10-20T01:01:58.963Z,5.05
2022-10-20T01:04:38.056Z,4.22
2022-10-20T01:07:32.210Z,4.38
2022-10-20T01:10:35.150Z,5.10
2022-10-20T01:13:19.562Z,4.43
2022-10-20T01:16:15.614Z,3.58
2022-10-20T01:19:20.657Z,5.00
2022-10-20T01:22:28.086Z,3.60
2022-10-20T01:25:16.134Z,4.80
2022-10-20T01:27:47.207Z,4.38
2022-10-20T01:30:18.691Z,5.22
2022-10-20T01:33:16.870Z,4.00
2022-10-20T01:35:54.342Z,3.85
2022-10-20T01:38:29.062Z,4.30
2022-10-20T01:41:26.139Z,5.13
2022-10-20T01:44:00.643Z,5.25
2022-10-20T01:46:30.890Z,5.45
2022-10-20T01:49:07.308Z,4.93
2022-10-20T01:51:52.824Z,4.40
2022-10-20T01:54:37.768Z,3.55
2022-10-20T01:57:44.676Z,4.40
2022-10-20T02:00:36.160Z,4.22
2022-10-20T02:07:18.485Z,3.78
2022-10-20T02:10:12.049Z,4.28
2022-10-20T02:13:29.287Z,3.42
2022-10-20T02:16:54.583Z,4.70
2022-10-20T02:20:27.105Z,4.22
2022-10-20T02:32:03.555Z,4.28
2022-10-20T02:34:52.429Z,4.70
2022-10-20T02:38:56.840Z,4.25
2022-10-20T02:42:51.342Z,3.15
2022-10-20T02:50:41.323Z,3.65
2022-10-20T02:54:52.431Z,3.78
2022-10-20T03:40:22.477Z,4.95
2022-10-20T03:43:26.652Z,4.55
2022-10-20T03:46:06.862Z,5.43
2022-10-20T03:48:47.748Z,4.53
2022-10-20T03:51:16.245Z,3.83
2022-10-20T03:57:25.661Z,3.13
2022-10-20T04:00:02.069Z,3.65
2022-10-20T04:03:01.182Z,3.60
2022-10-20T04:05:29.580Z,3.10
2022-10-20T04:07:57.878Z,2.85
2022-10-20T04:10:26.792Z,3.55
2022-10-20T04:12:58.252Z,3.35
2022-10-20T04:15:28.175Z,2.83
2022-10-20T04:17:58.676Z,2.60
2022-10-20T04:20:34.007Z,2.53
2022-10-20T04:23:04.654Z,2.80
2022-10-20T04:25:32.819Z,3.00
2022-10-20T04:28:01.205Z,2.85
2022-10-20T04:30:33.678Z,3.70
2022-10-20T04:33:01.747Z,3.15
2022-10-20T04:35:29.845Z,2.95
2022-10-20T04:37:59.617Z,3.28
2022-10-20T04:40:55.975Z,3.38
2022-10-20T04:43:30.668Z,3.90
2022-10-20T04:46:06.899Z,3.63
2022-10-20T04:48:37.096Z,4.22
2022-10-20T04:51:09.846Z,4.00
2022-10-20T04:53:43.597Z,3.95
2022-10-20T04:56:14.683Z,3.25
2022-10-20T04:58:48.820Z,4.07
2022-10-20T05:01:53.056Z,4.57
2022-10-20T05:04:48.809Z,5.15
2022-10-20T05:07:17.435Z,4.75
2022-10-20T05:09:49.106Z,5.40
2022-10-20T05:12:21.679Z,4.60
2022-10-20T05:14:49.984Z,4.57
2022-10-20T05:17:21.239Z,4.38
2022-10-20T05:19:53.066Z,4.75
2022-10-20T05:22:21.313Z,4.75
2022-10-20T05:24:49.690Z,4.22
2022-10-20T05:27:23.676Z,4.35
2022-10-20T05:29:51.935Z,4.32
2022-10-20T05:32:21.404Z,3.75
2022-10-20T05:34:50.652Z,3.90
2022-10-20T05:37:24.197Z,4.47
2022-10-20T05:39:53.519Z,3.63
2022-10-20T05:42:25.364Z,4.15
2022-10-20T05:44:56.270Z,6.93
2022-10-20T05:47:25.846Z,5.47
2022-10-20T05:49:54.122Z,6.55
2022-10-20T05:52:22.385Z,7.15
2022-10-20T05:54:50.652Z,6.80
2022-10-20T05:57:18.803Z,5.95
2022-10-20T05:59:48.118Z,6.30
2022-10-20T06:02:16.170Z,4.50
2022-10-20T06:04:45.625Z,5.88
2022-10-20T06:07:13.688Z,5.50
2022-10-20T06:09:42.158Z,4.78
2022-10-20T06:12:10.158Z,4.30
2022-10-20T06:14:38.237Z,4.07
2022-10-20T06:17:06.287Z,2.60
2022-10-20T06:19:34.496Z,3.45
2022-10-20T06:22:06.896Z,2.38
2022-10-20T06:24:35.304Z,2.40
2022-10-20T06:27:03.316Z,3.17
2022-10-20T06:29:31.459Z,1.90
2022-10-20T06:35:09.686Z,1.60
2022-10-20T06:54:45.669Z,2.13
2022-10-20T06:57:13.877Z,2.13
2022-10-20T07:00:13.268Z,1.67
2022-10-20T07:04:04.317Z,2.17
2022-10-20T07:07:23.002Z,1.90
2022-10-20T07:43:42.988Z,2.37
2022-10-20T07:46:44.916Z,1.57
2022-10-20T07:50:32.442Z,2.00
2022-10-20T08:11:10.379Z,1.60
2022-10-20T08:18:24.614Z,1.80
2022-10-20T08:26:11.443Z,0.90
2022-10-20T08:29:16.156Z,0.80
2022-10-20T08:32:06.513Z,1.80
2022-10-20T08:39:43.086Z,0.77
2022-10-20T08:46:21.166Z,0.73
2022-10-20T08:48:53.999Z,0.40
2022-10-20T08:51:44.629Z,0.60
2022-10-20T08:54:26.005Z,0.90
2022-10-20T08:57:14.720Z,0.30
2022-10-20T08:59:44.470Z,0.40
2022-10-20T09:02:23.655Z,0.43
2022-10-20T09:05:05.349Z,0.50
2022-10-20T09:07:53.196Z,1.20
2022-10-20T09:10:32.459Z,0.93
2022-10-20T09:13:12.720Z,0.90
2022-10-20T09:15:51.515Z,1.17
2022-10-20T09:18:21.789Z,1.13
2022-10-20T09:20:56.925Z,0.50
2022-10-20T09:23:45.907Z,0.53
2022-10-20T09:26:30.350Z,0.83
2022-10-20T09:29:13.393Z,1.50
2022-10-20T09:31:45.408Z,1.00
2022-10-20T09:34:26.382Z,0.60
2022-10-20T09:36:59.669Z,0.63
2022-10-20T09:39:29.747Z,0.90
2022-10-20T09:42:03.939Z,0.67
2022-10-20T09:44:35.034Z,0.60
2022-10-20T09:47:03.626Z,0.67
2022-10-20T09:49:36.549Z,0.70
2022-10-20T09:52:15.327Z,0.60
2022-10-20T09:54:48.074Z,0.33
2022-10-20T09:57:19.744Z,1.20
2022-10-20T09:59:50.466Z,0.40
2022-10-20T10:02:33.098Z,0.60
2022-10-20T10:05:19.009Z,0.80
2022-10-20T10:07:58.906Z,0.50
2022-10-20T10:10:30.461Z,0.83
2022-10-20T10:13:01.716Z,0.87
2022-10-20T10:15:32.585Z,0.70
2022-10-20T10:18:01.345Z,0.97
2022-10-20T10:20:39.678Z,0.63
2022-10-20T10:23:23.444Z,0.60
2022-10-20T10:25:52.619Z,0.70
2022-10-20T10:28:36.208Z,1.07
2022-10-20T10:31:24.346Z,0.77
2022-10-20T10:33:56.997Z,0.70
2022-10-20T10:36:37.560Z,0.73
2022-10-20T10:39:08.331Z,0.80
2022-10-20T10:41:53.658Z,0.70
2022-10-20T10:44:32.201Z,0.90
2022-10-20T10:47:09.543Z,0.93
2022-10-20T10:49:47.329Z,0.97
2022-10-20T10:52:31.457Z,0.90
2022-10-20T10:55:14.300Z,0.90
2022-10-20T10:57:52.531Z,0.80
2022-10-20T11:00:34.020Z,1.13
2022-10-20T11:03:12.100Z,0.80
2022-10-20T11:05:58.211Z,1.13
2022-10-20T11:08:43.354Z,1.00
2022-10-20T11:11:23.805Z,0.87
2022-10-20T11:14:03.356Z,1.03
2022-10-20T11:16:40.230Z,0.90
2022-10-20T11:19:39.922Z,1.30
2022-10-20T11:22:18.352Z,0.60
2022-10-20T11:25:03.717Z,1.00
2022-10-20T11:27:36.400Z,0.80
2022-10-20T11:30:15.464Z,1.20
2022-10-20T11:32:47.993Z,0.97
2022-10-20T11:35:23.934Z,1.00
2022-10-20T11:37:57.597Z,1.20
2022-10-20T11:40:33.415Z,0.67
2022-10-20T11:43:11.108Z,0.97
2022-10-20T11:45:46.289Z,1.23
2022-10-20T11:48:21.761Z,1.00
2022-10-20T11:50:53.808Z,1.43
2022-10-20T11:53:45.758Z,1.30
2022-10-20T11:56:31.952Z,1.20
2022-10-20T11:59:42.567Z,1.10
2022-10-20T12:02:30.556Z,1.03
2022-10-20T12:05:22.735Z,1.03
2022-10-20T12:08:30.503Z,1.30
2022-10-20T12:11:16.671Z,1.40
2022-10-20T12:13:59.384Z,1.30
2022-10-20T12:17:05.123Z,1.40
2022-10-20T12:19:36.437Z,1.23
2022-10-20T12:22:26.162Z,0.77
2022-10-20T12:25:24.188Z,1.13
2022-10-20T12:28:36.404Z,0.97
2022-10-20T12:31:12.479Z,1.27
2022-10-20T12:33:43.731Z,1.10
2022-10-20T12:36:32.824Z,0.97
2022-10-20T12:39:20.157Z,0.80
2022-10-20T12:42:04.172Z,0.80
2022-10-20T12:44:43.468Z,0.97
2022-10-20T12:47:22.704Z,0.90
2022-10-20T12:49:56.771Z,1.17
2022-10-20T12:52:29.455Z,0.80
2022-10-20T12:55:06.820Z,0.93
2022-10-20T12:57:44.975Z,0.70
2022-10-20T13:00:49.587Z,1.20
2022-10-20T13:03:45.475Z,1.23
2022-10-20T13:06:42.791Z,0.60
2022-10-20T13:09:24.938Z,1.27
2022-10-20T13:12:06.030Z,0.63
2022-10-20T13:15:07.314Z,1.00
2022-10-20T13:18:10.080Z,0.70
2022-10-20T13:20:50.511Z,0.90
2022-10-20T13:23:26.937Z,0.80
2022-10-20T13:26:19.230Z,0.63
2022-10-20T13:28:52.638Z,0.87
2022-10-20T13:31:25.920Z,1.47
2022-10-20T13:34:06.990Z,1.67
2022-10-20T13:36:54.403Z,1.10
2022-10-20T13:39:35.353Z,1.20
2022-10-20T13:42:19.759Z,0.93
2022-10-20T13:44:59.584Z,1.10
2022-10-20T13:47:52.401Z,1.20
2022-10-20T13:50:24.444Z,1.13
2022-10-20T13:52:59.260Z,1.40
2022-10-20T13:55:35.159Z,1.03
2022-10-20T13:58:16.739Z,1.17
2022-10-20T14:01:05.721Z,1.07
2022-10-20T14:03:48.760Z,1.00
2022-10-20T14:06:33.004Z,1.73
2022-10-20T14:09:13.268Z,1.80
2022-10-20T14:11:43.753Z,1.33
2022-10-20T14:14:15.394Z,1.37
2022-10-20T14:16:52.384Z,1.10
2022-10-20T14:19:23.290Z,0.90
2022-10-20T14:21:54.416Z,1.53
2022-10-20T14:24:30.391Z,0.77
2022-10-20T14:27:01.650Z,1.27
2022-10-20T14:29:34.522Z,1.17
2022-10-20T14:32:05.003Z,1.10
2022-10-20T14:34:36.447Z,1.20
2022-10-20T14:37:09.516Z,1.07
2022-10-20T14:39:41.372Z,1.43
2022-10-20T14:42:25.084Z,1.33
2022-10-20T14:44:57.957Z,1.30
2022-10-20T14:47:29.789Z,1.03
2022-10-20T14:49:59.919Z,1.30
2022-10-20T14:52:32.343Z,0.90
2022-10-20T14:55:02.234Z,1.17
2022-10-20T14:57:43.581Z,1.03
2022-10-20T15:00:34.227Z,1.23
2022-10-20T15:03:07.005Z,0.70
2022-10-20T15:05:40.613Z,1.57
2022-10-20T15:08:24.944Z,1.00
2022-10-20T15:10:55.021Z,1.40
2022-10-20T15:13:27.996Z,1.60
2022-10-20T15:15:57.735Z,0.93
2022-10-20T15:18:26.312Z,1.63
2022-10-20T15:20:55.963Z,1.20
2022-10-20T15:23:25.619Z,1.27
2022-10-20T15:25:58.982Z,1.13
2022-10-20T15:28:32.648Z,0.87
2022-10-20T15:31:05.988Z,1.70
2022-10-20T15:33:34.251Z,1.60
2022-10-20T15:36:02.537Z,1.50
2022-10-20T15:38:31.105Z,1.47
2022-10-20T15:41:02.566Z,4.30
2022-10-20T15:43:30.913Z,2.60
2022-10-20T15:45:59.111Z,1.80
2022-10-20T15:48:27.174Z,1.13
2022-10-20T15:50:56.216Z,1.17
2022-10-20T15:53:24.337Z,1.53
2022-10-20T15:55:52.421Z,1.43
2022-10-20T15:58:21.795Z,1.97
2022-10-20T16:00:49.971Z,1.77
2022-10-20T16:03:19.427Z,1.27
2022-10-20T16:05:47.970Z,1.40
2022-10-20T16:08:16.372Z,1.33
2022-10-20T16:10:44.935Z,1.33
2022-10-20T16:13:13.417Z,1.10
2022-10-20T16:15:42.972Z,2.43
2022-10-20T16:18:11.668Z,1.43
2022-10-20T16:20:39.717Z,1.50
2022-10-20T16:23:07.744Z,1.83
2022-10-20T16:25:35.861Z,3.07
2022-10-20T16:28:07.067Z,1.20
2022-10-20T16:30:35.130Z,1.20
2022-10-20T16:33:04.583Z,1.37
2022-10-20T16:35:32.570Z,1.17
2022-10-20T16:38:01.046Z,1.70
2022-10-20T16:40:29.084Z,2.47
2022-10-20T16:42:57.105Z,2.97
2022-10-20T16:45:25.142Z,2.57
2022-10-20T16:47:53.291Z,1.73
2022-10-20T16:50:22.602Z,1.07
2022-10-20T16:52:50.639Z,1.67
2022-10-20T16:55:18.799Z,2.40
2022-10-20T16:57:46.864Z,2.13
2022-10-20T17:00:16.359Z,1.90
2022-10-20T17:02:47.322Z,1.30
2022-10-20T17:05:16.559Z,1.73
2022-10-20T17:07:45.917Z,16.83
2022-10-20T17:10:13.880Z,4.30
2022-10-20T17:12:41.955Z,3.20
2022-10-20T17:15:11.520Z,2.70
2022-10-20T17:17:39.914Z,2.17
2022-10-20T17:20:09.116Z,1.87
2022-10-20T17:22:37.336Z,1.73
2022-10-20T17:25:08.348Z,1.40
2022-10-20T17:27:36.374Z,1.70
2022-10-20T17:30:05.555Z,2.00
2022-10-20T17:32:33.538Z,1.73
2022-10-20T17:35:01.491Z,2.43
2022-10-20T17:37:29.522Z,2.30
2022-10-20T17:39:57.487Z,1.43
2022-10-20T17:42:26.823Z,1.70
2022-10-20T17:44:54.958Z,1.63
2022-10-20T17:47:23.058Z,2.13
2022-10-20T17:49:51.044Z,2.80
2022-10-20T17:52:20.053Z,1.90
2022-10-20T17:54:48.120Z,2.47
2022-10-20T17:57:16.196Z,4.07
2022-10-20T17:59:53.939Z,2.47
2022-10-20T18:02:30.050Z,1.80
2022-10-20T18:05:02.906Z,2.00
2022-10-20T18:07:35.214Z,1.83
2022-10-20T18:10:12.893Z,1.70
2022-10-20T18:12:44.611Z,2.00
2022-10-20T18:15:16.852Z,1.80
2022-10-20T18:17:44.938Z,1.50
2022-10-20T18:20:14.794Z,1.33
2022-10-20T18:22:59.185Z,2.97
2022-10-20T18:26:01.760Z,2.23
2022-10-20T18:28:32.108Z,2.03
2022-10-20T18:32:11.776Z,2.57
2022-10-20T18:35:33.620Z,2.40
2022-10-20T18:38:42.851Z,2.10
2022-10-20T18:41:15.405Z,1.20
2022-10-20T18:43:47.160Z,1.60
2022-10-20T18:46:18.416Z,1.40
2022-10-20T18:48:46.833Z,2.13
2022-10-20T18:51:15.641Z,1.50
2022-10-20T18:53:47.013Z,1.43
2022-10-20T18:56:17.129Z,1.93
2022-10-20T18:58:53.699Z,1.20
2022-10-20T19:01:31.023Z,1.30
2022-10-20T19:04:00.336Z,1.43
2022-10-20T19:06:37.737Z,1.73
2022-10-20T19:09:10.528Z,2.00
2022-10-20T19:12:10.596Z,1.70
2022-10-20T19:15:16.841Z,1.33
2022-10-20T19:18:26.327Z,1.70
2022-10-20T19:21:11.031Z,2.03
2022-10-20T19:28:00.561Z,2.97
2022-10-20T19:31:29.689Z,3.50
2022-10-20T19:34:10.494Z,2.63
2022-10-20T19:36:44.933Z,2.00
2022-10-20T19:39:14.905Z,2.23
2022-10-20T19:41:48.411Z,4.37
2022-10-20T19:44:24.449Z,10.27
2022-10-20T19:46:55.024Z,6.63
2022-10-20T19:49:25.654Z,4.43
2022-10-20T19:51:54.249Z,4.10
2022-10-20T19:54:22.648Z,2.40
2022-10-20T19:56:52.985Z,1.90
2022-10-20T19:59:28.844Z,2.00
2022-10-20T20:01:59.854Z,1.40
2022-10-20T20:04:29.706Z,1.70
2022-10-20T20:07:03.794Z,1.60
2022-10-20T20:09:51.629Z,1.57
2022-10-20T20:12:25.400Z,1.50
2022-10-20T20:16:06.276Z,1.67
2022-10-20T20:19:31.231Z,1.60
2022-10-20T20:22:29.352Z,1.07
2022-10-20T20:25:37.582Z,1.80
2022-10-20T20:28:42.665Z,1.50
2022-10-20T20:32:47.728Z,1.33
2022-10-20T20:36:10.934Z,2.20
2022-10-20T20:47:10.744Z,1.70
2022-10-20T20:49:53.515Z,1.50
2022-10-20T20:52:23.752Z,1.67
2022-10-20T20:55:13.050Z,1.40
2022-10-20T20:57:52.827Z,2.20
2022-10-20T21:00:45.527Z,1.93
2022-10-20T21:08:33.715Z,2.10
2022-10-20T21:11:56.897Z,3.00
2022-10-20T21:14:49.857Z,1.83
2022-10-20T21:17:40.004Z,1.90
2022-10-20T21:20:42.258Z,2.53
2022-10-20T21:23:23.248Z,2.10
2022-10-20T21:26:24.879Z,2.10
2022-10-20T21:29:20.308Z,2.00
2022-10-20T21:32:04.976Z,2.50
2022-10-20T21:34:46.172Z,2.10
2022-10-20T21:37:31.932Z,1.90
2022-10-20T21:40:14.670Z,2.13
2022-10-20T21:42:44.527Z,2.23
2022-10-20T21:45:48.088Z,2.50
2022-10-20T21:49:01.375Z,2.30
2022-10-20T21:59:08.642Z,2.40
2022-10-20T22:02:19.929Z,2.30
2022-10-20T22:54:50.825Z,2.40
2022-10-20T22:58:47.585Z,2.20
2022-10-20T23:03:02.182Z,2.30
2022-10-20T23:10:44.714Z,2.83
2022-10-20T23:14:10.887Z,2.17
2022-10-20T23:16:42.950Z,2.30
2022-10-20T23:19:43.979Z,2.70
2022-10-20T23:31:01.572Z,2.47
2022-10-20T23:33:40.440Z,1.80
2022-10-20T23:36:11.175Z,1.50
2022-10-20T23:43:15.600Z,1.93
2022-10-20T23:45:55.752Z,1.37
2022-10-20T23:49:15.962Z,2.03
2022-10-20T23:51:49.742Z,2.00
2022-10-20T23:54:20.292Z,2.60
2022-10-20T23:56:48.588Z,2.23
2022-10-20T23:59:18.014Z,1.70
